Time;durP1;ratioP1;P1;durP2;ratioP2;P2;SDS_P1;SDS_P2;PMS_P1;PMS_P2;Temp;Humidity;BMP_temperature;BMP_pressure;BME280_temperature;BME280_humidity;BME280_pressure;Samples;Min_cycle;Max_cycle;Signal;HPM_P1;HPM_P2
2021/09/04 00:02:23;;;;;;;1.90;1.63;;;;;;;;;;4984664;28;20219;-81
2021/09/04 00:04:48;;;;;;;4.07;1.83;;;;;;;;;;5002953;28;20227;-81
2021/09/04 00:07:13;;;;;;;2.90;1.63;;;;;;;;;;5003187;28;20202;-81
2021/09/04 00:09:38;;;;;;;2.97;1.70;;;;;;;;;;5003292;28;20558;-81
2021/09/04 00:12:04;;;;;;;4.50;1.83;;;;;;;;;;5001354;28;20268;-81
2021/09/04 00:14:30;;;;;;;1.57;1.47;;;;;;;;;;5002406;28;20212;-81
2021/09/04 00:16:55;;;;;;;3.27;1.70;;;;;;;;;;4997701;28;20710;-81
2021/09/04 00:19:20;;;;;;;4.43;1.80;;;;;;;;;;5000342;28;20177;-81
2021/09/04 00:21:46;;;;;;;2.60;1.60;;;;;;;;;;4999437;28;20236;-81
2021/09/04 00:24:11;;;;;;;2.10;1.70;;;;;;;;;;5001403;28;20240;-81
2021/09/04 00:26:36;;;;;;;6.13;2.17;;;;;;;;;;5002255;28;20216;-81
2021/09/04 00:29:02;;;;;;;2.93;1.90;;;;;;;;;;4985685;28;20193;-81
2021/09/04 00:31:27;;;;;;;4.50;1.70;;;;;;;;;;5003017;28;20267;-80
2021/09/04 00:33:52;;;;;;;2.50;1.60;;;;;;;;;;5002489;28;20202;-81
2021/09/04 00:36:17;;;;;;;2.50;1.57;;;;;;;;;;5000368;28;20177;-81
2021/09/04 00:38:43;;;;;;;5.40;2.40;;;;;;;;;;5001882;28;20708;-81
2021/09/04 00:41:08;;;;;;;3.53;1.60;;;;;;;;;;5002033;28;20211;-81
2021/09/04 00:43:33;;;;;;;2.53;1.33;;;;;;;;;;5002475;28;20204;-81
2021/09/04 00:46:05;;;;;;;4.80;2.40;;;;;;;;;;5001853;28;20177;-81
2021/09/04 00:48:30;;;;;;;1.80;1.50;;;;;;;;;;5001970;28;20263;-81
2021/09/04 00:50:56;;;;;;;2.97;1.50;;;;;;;;;;5000769;28;20503;-81
2021/09/04 00:53:21;;;;;;;3.53;1.80;;;;;;;;;;4995173;28;20181;-81
2021/09/04 00:55:46;;;;;;;3.00;1.77;;;;;;;;;;4998378;28;20181;-81
2021/09/04 00:58:12;;;;;;;2.27;1.50;;;;;;;;;;5001101;28;20192;-81
2021/09/04 01:00:37;;;;;;;4.60;2.20;;;;;;;;;;5000754;28;20725;-80
2021/09/04 01:03:03;;;;;;;2.87;1.70;;;;;;;;;;4998794;28;20174;-81
2021/09/04 01:05:28;;;;;;;4.07;1.87;;;;;;;;;;4999703;28;20612;-81
2021/09/04 01:07:53;;;;;;;5.50;1.97;;;;;;;;;;5001334;28;20178;-81
2021/09/04 01:10:18;;;;;;;3.33;1.93;;;;;;;;;;5000769;28;20180;-81
2021/09/04 01:12:44;;;;;;;2.83;1.83;;;;;;;;;;4984071;28;20211;-81
2021/09/04 01:15:09;;;;;;;2.33;1.80;;;;;;;;;;5002043;28;20225;-81
2021/09/04 01:17:35;;;;;;;3.70;1.40;;;;;;;;;;5001523;28;20181;-81
2021/09/04 01:20:00;;;;;;;3.77;1.67;;;;;;;;;;4982137;28;20268;-81
2021/09/04 01:22:29;;;;;;;3.03;1.83;;;;;;;;;;5000227;28;20263;-81
2021/09/04 01:24:54;;;;;;;5.67;1.60;;;;;;;;;;5001023;28;20201;-81
2021/09/04 01:27:20;;;;;;;4.37;1.50;;;;;;;;;;5000687;28;20957;-80
2021/09/04 01:29:46;;;;;;;4.80;2.13;;;;;;;;;;4999328;28;20178;-81
2021/09/04 01:32:11;;;;;;;3.20;1.80;;;;;;;;;;4992993;28;20203;-81
2021/09/04 01:34:36;;;;;;;3.07;1.70;;;;;;;;;;4999603;28;20937;-81
2021/09/04 01:37:02;;;;;;;2.40;1.70;;;;;;;;;;5000818;28;20185;-81
2021/09/04 01:39:27;;;;;;;4.00;2.00;;;;;;;;;;5000325;28;20185;-81
2021/09/04 01:41:52;;;;;;;2.43;1.80;;;;;;;;;;5002036;28;20232;-81
2021/09/04 01:44:17;;;;;;;1.97;1.77;;;;;;;;;;5001444;28;20214;-80
2021/09/04 01:46:43;;;;;;;2.93;1.80;;;;;;;;;;4999782;28;20646;-81
2021/09/04 01:49:08;;;;;;;3.30;1.53;;;;;;;;;;4998512;28;20178;-81
2021/09/04 01:51:33;;;;;;;3.90;1.83;;;;;;;;;;5000963;28;20181;-81
2021/09/04 01:53:59;;;;;;;4.30;1.80;;;;;;;;;;5001483;28;20290;-81
2021/09/04 01:56:24;;;;;;;5.20;2.03;;;;;;;;;;5000984;28;20182;-80
2021/09/04 01:58:50;;;;;;;3.93;2.00;;;;;;;;;;4998793;28;20200;-81
2021/09/04 02:01:15;;;;;;;2.50;1.70;;;;;;;;;;4999065;28;20193;-81
2021/09/04 02:03:40;;;;;;;3.87;2.00;;;;;;;;;;5001027;28;20217;-80
2021/09/04 02:06:05;;;;;;;2.30;1.70;;;;;;;;;;4996876;28;20180;-81
2021/09/04 02:08:31;;;;;;;4.67;1.80;;;;;;;;;;4995470;28;20227;-81
2021/09/04 02:10:57;;;;;;;1.70;1.60;;;;;;;;;;4998521;28;20181;-81
2021/09/04 02:13:22;;;;;;;2.30;1.73;;;;;;;;;;4981609;28;20185;-81
2021/09/04 02:15:48;;;;;;;5.07;1.90;;;;;;;;;;4997958;28;20208;-81
2021/09/04 02:18:13;;;;;;;3.50;1.77;;;;;;;;;;4984215;28;20181;-81
2021/09/04 02:20:38;;;;;;;5.47;2.00;;;;;;;;;;5000812;28;20198;-81
2021/09/04 02:23:03;;;;;;;4.00;2.00;;;;;;;;;;5001583;28;20178;-81
2021/09/04 02:25:29;;;;;;;2.20;1.60;;;;;;;;;;5000480;28;20197;-80
2021/09/04 02:27:54;;;;;;;3.33;1.50;;;;;;;;;;4999320;28;20615;-81
2021/09/04 02:30:19;;;;;;;3.30;2.00;;;;;;;;;;4994603;28;20186;-81
2021/09/04 02:32:44;;;;;;;3.93;1.83;;;;;;;;;;4999742;28;20262;-81
2021/09/04 02:35:10;;;;;;;2.60;1.70;;;;;;;;;;5000355;28;20671;-81
2021/09/04 02:37:35;;;;;;;6.57;1.87;;;;;;;;;;5000665;28;20274;-81
2021/09/04 02:40:01;;;;;;;7.70;1.60;;;;;;;;;;5000790;28;20228;-81
2021/09/04 02:42:26;;;;;;;1.80;1.67;;;;;;;;;;5001084;28;20226;-81
2021/09/04 02:44:51;;;;;;;3.73;1.60;;;;;;;;;;4994491;28;20212;-81
2021/09/04 02:47:17;;;;;;;3.27;1.83;;;;;;;;;;5001452;28;20177;-81
2021/09/04 02:49:42;;;;;;;4.70;2.30;;;;;;;;;;5003654;28;20204;-81
2021/09/04 02:52:07;;;;;;;2.07;1.60;;;;;;;;;;5002401;28;20181;-80
2021/09/04 02:54:32;;;;;;;4.40;1.83;;;;;;;;;;5003513;28;20207;-81
2021/09/04 02:56:58;;;;;;;2.43;1.60;;;;;;;;;;4986757;28;20260;-81
2021/09/04 02:59:23;;;;;;;3.03;1.80;;;;;;;;;;5004233;28;20268;-81
2021/09/04 03:01:49;;;;;;;3.63;1.70;;;;;;;;;;5003419;28;20488;-80
2021/09/04 03:04:14;;;;;;;5.33;1.90;;;;;;;;;;5003980;28;20192;-81
2021/09/04 03:06:39;;;;;;;3.47;1.60;;;;;;;;;;5004164;28;20260;-81
2021/09/04 03:09:04;;;;;;;4.03;1.80;;;;;;;;;;5003807;28;20178;-80
2021/09/04 03:11:30;;;;;;;9.27;1.93;;;;;;;;;;5003233;28;20189;-81
2021/09/04 03:13:55;;;;;;;4.60;2.00;;;;;;;;;;5002579;28;20205;-81
2021/09/04 03:16:20;;;;;;;2.63;1.70;;;;;;;;;;5003256;28;20177;-80
2021/09/04 03:18:46;;;;;;;3.40;1.70;;;;;;;;;;4986446;28;20200;-81
2021/09/04 03:21:11;;;;;;;3.13;1.70;;;;;;;;;;4983598;28;20265;-81
2021/09/04 03:23:36;;;;;;;3.23;1.53;;;;;;;;;;5001977;28;20229;-81
2021/09/04 03:26:02;;;;;;;2.80;1.43;;;;;;;;;;5001980;28;20265;-81
2021/09/04 03:28:27;;;;;;;4.30;1.77;;;;;;;;;;5003358;28;20642;-81
2021/09/04 03:30:52;;;;;;;2.57;1.50;;;;;;;;;;5001959;28;20181;-82
2021/09/04 03:33:18;;;;;;;3.40;1.67;;;;;;;;;;5001725;28;20169;-81
2021/09/04 03:35:43;;;;;;;4.03;2.17;;;;;;;;;;5003156;28;20178;-80
2021/09/04 03:38:08;;;;;;;3.23;2.43;;;;;;;;;;5003473;28;20177;-80
2021/09/04 03:40:33;;;;;;;2.60;1.73;;;;;;;;;;5002136;28;20233;-81
2021/09/04 03:42:59;;;;;;;3.13;1.73;;;;;;;;;;5002883;28;20170;-81
2021/09/04 03:45:26;;;;;;;2.47;1.27;;;;;;;;;;4976795;28;20233;-81
2021/09/04 03:47:52;;;;;;;4.20;1.77;;;;;;;;;;5001668;28;20231;-81
2021/09/04 03:50:17;;;;;;;2.20;1.57;;;;;;;;;;5002418;28;20414;-81
2021/09/04 03:52:42;;;;;;;2.13;1.40;;;;;;;;;;5003850;28;20180;-81
2021/09/04 03:55:10;;;;;;;4.57;1.57;;;;;;;;;;4984036;28;20201;-81
2021/09/04 03:57:35;;;;;;;4.53;1.50;;;;;;;;;;5001757;28;20253;-80
2021/09/04 04:00:01;;;;;;;4.57;2.20;;;;;;;;;;4984130;28;20528;-81
2021/09/04 04:02:26;;;;;;;7.23;1.77;;;;;;;;;;5000240;28;20197;-81
2021/09/04 04:04:53;;;;;;;3.50;1.40;;;;;;;;;;5000460;28;20271;-81
2021/09/04 04:07:18;;;;;;;3.90;1.70;;;;;;;;;;5000689;28;20173;-81
2021/09/04 04:09:44;;;;;;;2.20;1.53;;;;;;;;;;5001023;28;20790;-81
2021/09/04 04:12:10;;;;;;;2.60;1.80;;;;;;;;;;5002529;28;20217;-81
2021/09/04 04:14:35;;;;;;;2.30;1.70;;;;;;;;;;5002970;28;20197;-81
2021/09/04 04:17:01;;;;;;;5.77;1.83;;;;;;;;;;5001307;28;20177;-81
2021/09/04 04:19:27;;;;;;;2.67;1.53;;;;;;;;;;5002172;28;20669;-81
2021/09/04 04:21:52;;;;;;;3.03;1.60;;;;;;;;;;5001038;28;20455;-80
2021/09/04 04:24:17;;;;;;;3.37;1.57;;;;;;;;;;5003325;28;20204;-81
2021/09/04 04:26:42;;;;;;;5.73;1.60;;;;;;;;;;5002297;28;20669;-82
2021/09/04 04:29:08;;;;;;;3.80;1.30;;;;;;;;;;4999770;28;20268;-81
2021/09/04 04:31:34;;;;;;;3.03;1.63;;;;;;;;;;4999755;28;20188;-80
2021/09/04 04:34:00;;;;;;;2.87;1.53;;;;;;;;;;4998968;28;20216;-81
2021/09/04 04:36:25;;;;;;;1.63;1.30;;;;;;;;;;5001018;28;20409;-81
2021/09/04 04:38:50;;;;;;;2.13;1.60;;;;;;;;;;5000232;28;20223;-81
2021/09/04 04:41:15;;;;;;;3.53;1.50;;;;;;;;;;5001737;28;20209;-81
2021/09/04 04:43:41;;;;;;;3.33;1.80;;;;;;;;;;5001117;28;20202;-80
2021/09/04 04:46:06;;;;;;;3.37;1.80;;;;;;;;;;5002359;28;20174;-81
2021/09/04 04:48:34;;;;;;;7.83;2.17;;;;;;;;;;4983879;28;20213;-81
2021/09/04 04:51:00;;;;;;;8.87;1.93;;;;;;;;;;5001366;28;20635;-81
2021/09/04 04:53:25;;;;;;;2.40;1.60;;;;;;;;;;5001892;28;20463;-81
2021/09/04 04:55:50;;;;;;;4.60;1.73;;;;;;;;;;5000941;28;20412;-81
2021/09/04 04:58:15;;;;;;;3.70;1.77;;;;;;;;;;5002312;28;20819;-81
2021/09/04 05:00:41;;;;;;;2.90;1.70;;;;;;;;;;5002595;28;20272;-81
2021/09/04 05:03:06;;;;;;;4.03;1.60;;;;;;;;;;4985073;28;20556;-81
2021/09/04 05:05:32;;;;;;;4.23;1.80;;;;;;;;;;4995535;28;20247;-81
2021/09/04 05:07:57;;;;;;;4.63;1.73;;;;;;;;;;4991559;28;20638;-81
2021/09/04 05:10:22;;;;;;;6.83;1.73;;;;;;;;;;4999884;28;20591;-81
2021/09/04 05:12:47;;;;;;;3.00;1.50;;;;;;;;;;5000450;28;20184;-81
2021/09/04 05:15:13;;;;;;;2.13;1.27;;;;;;;;;;5002361;28;20198;-81
2021/09/04 05:17:38;;;;;;;3.13;1.67;;;;;;;;;;5001990;28;20178;-81
2021/09/04 05:20:05;;;;;;;2.23;1.73;;;;;;;;;;5000829;28;20265;-81
2021/09/04 05:22:30;;;;;;;1.80;1.33;;;;;;;;;;5001899;28;20707;-81
2021/09/04 05:24:56;;;;;;;1.90;1.20;;;;;;;;;;5001452;28;20524;-81
2021/09/04 05:27:21;;;;;;;2.97;1.50;;;;;;;;;;4984024;28;20174;-81
2021/09/04 05:29:46;;;;;;;2.47;1.50;;;;;;;;;;5001530;28;20181;-81
2021/09/04 05:32:11;;;;;;;2.70;1.67;;;;;;;;;;4993482;28;20532;-81
2021/09/04 05:34:36;;;;;;;2.60;1.53;;;;;;;;;;4985489;28;20212;-81
2021/09/04 05:37:02;;;;;;;4.43;1.60;;;;;;;;;;5001538;28;20268;-81
2021/09/04 05:39:27;;;;;;;4.00;1.73;;;;;;;;;;5002471;28;20267;-81
2021/09/04 05:41:52;;;;;;;3.30;2.00;;;;;;;;;;4983964;28;20208;-81
2021/09/04 05:44:18;;;;;;;4.50;1.60;;;;;;;;;;4995964;28;20209;-81
2021/09/04 05:46:43;;;;;;;5.57;1.47;;;;;;;;;;4996044;28;20176;-81
2021/09/04 05:49:08;;;;;;;3.57;1.60;;;;;;;;;;5000995;28;20184;-81
2021/09/04 05:51:33;;;;;;;2.87;1.57;;;;;;;;;;5002423;28;20678;-81
2021/09/04 05:53:59;;;;;;;4.00;1.77;;;;;;;;;;4998558;28;20193;-81
2021/09/04 05:56:24;;;;;;;4.07;1.70;;;;;;;;;;5001367;28;20169;-81
2021/09/04 05:58:49;;;;;;;3.70;1.50;;;;;;;;;;4998232;28;20181;-82
2021/09/04 06:01:14;;;;;;;1.70;1.23;;;;;;;;;;4982998;28;20208;-81
2021/09/04 06:03:39;;;;;;;3.20;1.70;;;;;;;;;;4982118;28;20271;-81
2021/09/04 06:06:05;;;;;;;3.80;1.07;;;;;;;;;;5001093;28;20177;-81
2021/09/04 06:08:30;;;;;;;3.17;1.50;;;;;;;;;;4982881;28;20204;-81
2021/09/04 06:10:55;;;;;;;1.90;1.20;;;;;;;;;;5001264;28;20618;-82
2021/09/04 06:13:20;;;;;;;2.67;1.67;;;;;;;;;;5001899;28;20209;-81
2021/09/04 06:15:47;;;;;;;2.83;1.50;;;;;;;;;;4984008;28;20808;-81
2021/09/04 06:18:12;;;;;;;3.37;1.60;;;;;;;;;;4983293;28;20490;-81
2021/09/04 06:20:38;;;;;;;3.90;1.70;;;;;;;;;;4983923;28;20209;-81
2021/09/04 06:23:03;;;;;;;2.03;1.40;;;;;;;;;;4987119;28;20174;-82
2021/09/04 06:25:28;;;;;;;2.40;1.43;;;;;;;;;;4983771;28;20217;-81
2021/09/04 06:27:53;;;;;;;2.47;1.43;;;;;;;;;;4987534;28;20650;-81
2021/09/04 06:30:19;;;;;;;2.00;1.37;;;;;;;;;;4987020;28;20184;-81
2021/09/04 06:32:44;;;;;;;4.30;1.40;;;;;;;;;;5003112;28;20189;-81
2021/09/04 06:35:09;;;;;;;3.33;1.73;;;;;;;;;;5003679;28;20193;-81
2021/09/04 06:37:35;;;;;;;1.97;1.30;;;;;;;;;;4987074;28;20190;-81
2021/09/04 06:40:00;;;;;;;2.30;1.50;;;;;;;;;;4986544;28;20217;-81
2021/09/04 06:42:25;;;;;;;2.03;1.23;;;;;;;;;;5003889;28;20213;-81
2021/09/04 06:44:50;;;;;;;3.33;1.63;;;;;;;;;;4986156;28;20709;-80
2021/09/04 06:47:15;;;;;;;2.07;1.20;;;;;;;;;;4987563;28;20604;-82
2021/09/04 06:49:41;;;;;;;3.70;1.67;;;;;;;;;;5004667;28;20223;-81
2021/09/04 06:52:06;;;;;;;4.13;1.90;;;;;;;;;;4986665;28;20190;-81
2021/09/04 06:54:31;;;;;;;2.73;1.67;;;;;;;;;;4984971;28;20201;-81
2021/09/04 06:56:56;;;;;;;2.30;1.30;;;;;;;;;;5000313;28;20251;-81
2021/09/04 06:59:22;;;;;;;3.67;1.60;;;;;;;;;;4983961;28;20181;-81
2021/09/04 07:01:47;;;;;;;5.70;1.70;;;;;;;;;;5002638;28;20212;-81
2021/09/04 07:04:12;;;;;;;1.53;1.43;;;;;;;;;;4986913;28;20197;-81
2021/09/04 07:06:38;;;;;;;3.87;1.90;;;;;;;;;;4986361;28;20186;-81
2021/09/04 07:09:03;;;;;;;3.23;1.93;;;;;;;;;;5001976;28;20169;-81
2021/09/04 07:11:29;;;;;;;3.33;1.67;;;;;;;;;;4986344;28;20213;-81
2021/09/04 07:13:54;;;;;;;2.50;1.87;;;;;;;;;;5003352;28;20193;-81
2021/09/04 07:16:20;;;;;;;4.07;2.57;;;;;;;;;;4986674;28;21075;-81
2021/09/04 07:18:45;;;;;;;3.17;2.53;;;;;;;;;;4985691;28;20212;-81
2021/09/04 07:21:10;;;;;;;5.30;2.93;;;;;;;;;;5003296;28;20467;-81
2021/09/04 07:23:36;;;;;;;6.40;2.97;;;;;;;;;;4987087;28;20208;-81
2021/09/04 07:26:01;;;;;;;6.30;3.17;;;;;;;;;;4985821;28;20177;-81
2021/09/04 07:28:27;;;;;;;6.17;3.87;;;;;;;;;;4986619;28;20190;-81
2021/09/04 07:30:53;;;;;;;8.73;3.67;;;;;;;;;;4983274;28;20217;-81
2021/09/04 07:33:18;;;;;;;4.80;3.23;;;;;;;;;;4998902;28;20220;-81
2021/09/04 07:35:43;;;;;;;5.70;3.90;;;;;;;;;;4982625;28;20449;-80
2021/09/04 07:38:09;;;;;;;9.73;4.80;;;;;;;;;;4986015;28;20356;-81
2021/09/04 07:40:34;;;;;;;9.20;4.40;;;;;;;;;;4982266;28;20271;-81
2021/09/04 07:42:59;;;;;;;7.03;4.53;;;;;;;;;;4986078;28;20928;-80
2021/09/04 07:45:24;;;;;;;8.80;5.37;;;;;;;;;;5002139;28;20208;-81
2021/09/04 07:47:50;;;;;;;10.70;4.87;;;;;;;;;;4992186;28;20216;-81
2021/09/04 07:50:15;;;;;;;8.23;5.00;;;;;;;;;;5002909;28;20544;-81
2021/09/04 07:52:40;;;;;;;7.43;5.10;;;;;;;;;;5003158;28;20263;-81
2021/09/04 07:55:06;;;;;;;8.13;5.60;;;;;;;;;;5002291;28;20206;-80
2021/09/04 07:57:31;;;;;;;7.97;5.53;;;;;;;;;;5002226;28;20177;-80
2021/09/04 07:59:56;;;;;;;10.97;5.03;;;;;;;;;;5003175;28;20288;-81
2021/09/04 08:02:22;;;;;;;8.97;5.70;;;;;;;;;;5002931;28;20206;-81
2021/09/04 08:04:48;;;;;;;8.93;6.10;;;;;;;;;;5002355;28;20256;-80
2021/09/04 08:07:13;;;;;;;9.93;6.17;;;;;;;;;;5001826;28;20460;-80
2021/09/04 08:09:38;;;;;;;7.60;6.50;;;;;;;;;;4996611;28;20213;-81
2021/09/04 08:12:03;;;;;;;9.57;6.13;;;;;;;;;;5000366;28;20178;-80
2021/09/04 08:14:29;;;;;;;7.73;5.90;;;;;;;;;;5002108;28;20657;-81
2021/09/04 08:16:54;;;;;;;7.17;5.60;;;;;;;;;;5002706;28;20177;-81
2021/09/04 08:19:19;;;;;;;9.20;6.03;;;;;;;;;;4984411;28;20438;-80
2021/09/04 08:21:44;;;;;;;7.60;5.57;;;;;;;;;;4985060;28;20232;-81
2021/09/04 08:24:10;;;;;;;8.10;6.00;;;;;;;;;;5002368;28;20235;-81
2021/09/04 08:26:35;;;;;;;9.17;5.90;;;;;;;;;;5002095;28;20174;-81
2021/09/04 08:29:00;;;;;;;9.90;6.07;;;;;;;;;;5001941;28;20185;-80
2021/09/04 08:31:25;;;;;;;6.17;5.33;;;;;;;;;;5000748;28;20302;-80
2021/09/04 08:33:51;;;;;;;7.20;5.67;;;;;;;;;;5001392;28;20206;-80
2021/09/04 08:36:18;;;;;;;9.00;5.93;;;;;;;;;;4997296;28;20544;-80
2021/09/04 08:38:44;;;;;;;9.60;6.30;;;;;;;;;;5002405;28;20185;-80
2021/09/04 08:41:09;;;;;;;6.80;5.60;;;;;;;;;;5003370;28;21056;-80
2021/09/04 08:43:34;;;;;;;8.10;5.63;;;;;;;;;;5000639;28;20194;-80
2021/09/04 08:46:00;;;;;;;7.67;4.80;;;;;;;;;;4994886;28;20667;-80
2021/09/04 08:48:25;;;;;;;5.73;4.33;;;;;;;;;;4998006;28;20210;-80
2021/09/04 08:50:52;;;;;;;6.33;4.57;;;;;;;;;;4985414;28;20490;-80
2021/09/04 08:53:18;;;;;;;10.90;5.30;;;;;;;;;;5002061;28;20180;-80
2021/09/04 08:55:43;;;;;;;6.53;4.50;;;;;;;;;;4983883;28;20424;-80
2021/09/04 08:58:09;;;;;;;7.80;4.60;;;;;;;;;;5001888;28;20427;-80
2021/09/04 09:00:36;;;;;;;7.97;5.10;;;;;;;;;;5002559;28;20173;-80
2021/09/04 09:03:01;;;;;;;6.50;4.47;;;;;;;;;;5002264;28;20243;-80
2021/09/04 09:05:35;;;;;;;7.67;4.40;;;;;;;;;;4999835;28;21004;-79
2021/09/04 09:08:00;;;;;;;8.40;4.60;;;;;;;;;;5000871;28;20637;-80
2021/09/04 09:10:26;;;;;;;8.17;4.03;;;;;;;;;;5000649;28;20460;-79
2021/09/04 09:12:51;;;;;;;5.17;4.17;;;;;;;;;;5002073;28;21172;-80
2021/09/04 09:15:27;;;;;;;5.50;4.57;;;;;;;;;;4983267;28;20202;-80
2021/09/04 09:17:56;;;;;;;7.63;4.20;;;;;;;;;;5001626;28;20252;-80
2021/09/04 09:20:23;;;;;;;7.93;4.60;;;;;;;;;;5000473;28;20413;-80
2021/09/04 09:22:48;;;;;;;6.63;4.13;;;;;;;;;;4998654;28;20424;-80
2021/09/04 09:25:17;;;;;;;9.77;4.47;;;;;;;;;;4998210;28;20440;-80
2021/09/04 09:27:59;;;;;;;10.10;5.20;;;;;;;;;;5000341;28;20177;-80
2021/09/04 09:30:31;;;;;;;7.77;4.10;;;;;;;;;;5001170;28;20964;-80
2021/09/04 09:32:56;;;;;;;5.80;3.90;;;;;;;;;;5000531;28;20416;-80
2021/09/04 09:35:54;;;;;;;9.20;4.70;;;;;;;;;;5000736;28;20437;-79
2021/09/04 09:38:20;;;;;;;5.50;4.23;;;;;;;;;;4962150;28;20637;-80
2021/09/04 09:40:47;;;;;;;4.13;3.73;;;;;;;;;;5002388;28;20817;-80
2021/09/04 09:43:16;;;;;;;5.93;4.07;;;;;;;;;;4999851;28;20425;-80
2021/09/04 09:45:45;;;;;;;5.33;3.80;;;;;;;;;;5002187;28;20470;-79
2021/09/04 09:48:10;;;;;;;7.30;3.97;;;;;;;;;;5001177;28;20417;-79
2021/09/04 09:50:36;;;;;;;4.73;3.60;;;;;;;;;;5002215;28;20439;-79
2021/09/04 09:53:02;;;;;;;8.03;4.00;;;;;;;;;;5000505;28;20754;-80
2021/09/04 09:55:28;;;;;;;6.27;3.80;;;;;;;;;;5001757;28;20208;-80
2021/09/04 09:57:55;;;;;;;7.97;4.10;;;;;;;;;;5002988;28;20421;-80
2021/09/04 10:00:21;;;;;;;5.27;4.07;;;;;;;;;;4987341;28;20192;-80
2021/09/04 10:02:47;;;;;;;6.47;3.60;;;;;;;;;;5004122;28;20504;-80
2021/09/04 10:05:14;;;;;;;6.13;4.00;;;;;;;;;;4999952;28;20188;-80
2021/09/04 10:07:39;;;;;;;7.70;3.70;;;;;;;;;;5000202;28;20173;-80
2021/09/04 10:10:05;;;;;;;5.13;3.43;;;;;;;;;;5005094;28;20435;-80
2021/09/04 10:12:31;;;;;;;6.90;3.70;;;;;;;;;;5005833;28;20204;-80
2021/09/04 10:14:57;;;;;;;5.47;3.60;;;;;;;;;;5004761;28;20209;-80
2021/09/04 10:17:22;;;;;;;7.40;3.43;;;;;;;;;;4988123;28;20423;-80
2021/09/04 10:19:49;;;;;;;4.93;3.80;;;;;;;;;;5004534;28;20639;-80
2021/09/04 10:22:15;;;;;;;6.10;3.67;;;;;;;;;;5004785;28;20643;-80
2021/09/04 10:24:43;;;;;;;5.87;3.57;;;;;;;;;;5005179;28;20432;-80
2021/09/04 10:27:09;;;;;;;6.50;3.50;;;;;;;;;;4983905;28;20649;-80
2021/09/04 10:29:44;;;;;;;5.00;3.53;;;;;;;;;;5002637;28;20405;-80
2021/09/04 10:32:14;;;;;;;5.70;3.80;;;;;;;;;;4987520;28;20452;-80
2021/09/04 10:34:40;;;;;;;6.90;4.00;;;;;;;;;;5003888;28;20433;-79
2021/09/04 10:37:11;;;;;;;4.23;3.03;;;;;;;;;;5000514;28;20447;-79
2021/09/04 10:39:55;;;;;;;7.73;3.50;;;;;;;;;;5003283;28;21003;-79
2021/09/04 10:42:22;;;;;;;7.10;4.13;;;;;;;;;;5001404;28;20535;-80
2021/09/04 10:44:48;;;;;;;4.67;3.53;;;;;;;;;;5003433;28;20448;-80
2021/09/04 10:47:14;;;;;;;5.03;3.30;;;;;;;;;;4986490;28;20503;-79
2021/09/04 10:49:41;;;;;;;6.13;3.63;;;;;;;;;;5002476;28;20492;-80
2021/09/04 10:52:06;;;;;;;5.70;3.30;;;;;;;;;;5004605;28;20260;-80
2021/09/04 10:54:41;;;;;;;4.60;3.70;;;;;;;;;;5003580;28;21035;-79
2021/09/04 10:57:16;;;;;;;4.50;3.23;;;;;;;;;;5003420;28;20761;-80
2021/09/04 11:00:00;;;;;;;4.67;3.27;;;;;;;;;;5003716;28;20417;-80
2021/09/04 11:02:45;;;;;;;6.80;3.60;;;;;;;;;;4970119;28;20495;-80
2021/09/04 11:05:31;;;;;;;5.57;3.43;;;;;;;;;;5001756;28;20428;-80
2021/09/04 11:07:59;;;;;;;3.90;3.50;;;;;;;;;;4958814;28;20909;-80
2021/09/04 11:10:25;;;;;;;5.33;3.70;;;;;;;;;;5000995;28;20473;-79
2021/09/04 11:13:17;;;;;;;5.77;4.33;;;;;;;;;;5002945;28;20453;-79
2021/09/04 11:15:43;;;;;;;7.63;3.77;;;;;;;;;;4988358;28;20235;-79
2021/09/04 11:18:10;;;;;;;11.73;3.57;;;;;;;;;;5003265;28;20429;-79
2021/09/04 11:20:42;;;;;;;5.40;4.00;;;;;;;;;;4985357;28;20405;-79
2021/09/04 11:23:07;;;;;;;4.70;4.10;;;;;;;;;;5002546;28;20458;-79
2021/09/04 11:25:33;;;;;;;5.13;3.80;;;;;;;;;;4984061;28;20436;-79
2021/09/04 11:27:58;;;;;;;4.60;3.57;;;;;;;;;;5001637;28;20181;-79
2021/09/04 11:30:23;;;;;;;4.67;3.30;;;;;;;;;;4985799;28;20649;-79
2021/09/04 11:32:48;;;;;;;5.20;3.93;;;;;;;;;;5000882;28;20272;-79
2021/09/04 11:35:15;;;;;;;5.47;3.90;;;;;;;;;;4986354;28;20204;-79
2021/09/04 11:37:43;;;;;;;4.30;3.77;;;;;;;;;;4986181;28;20188;-79
2021/09/04 11:40:13;;;;;;;5.23;4.00;;;;;;;;;;5003538;28;20833;-79
2021/09/04 11:42:49;;;;;;;3.87;3.57;;;;;;;;;;5003144;28;20463;-79
2021/09/04 11:45:19;;;;;;;3.97;3.40;;;;;;;;;;4999762;28;20506;-79
2021/09/04 11:47:45;;;;;;;6.93;5.03;;;;;;;;;;4983602;28;20560;-80
2021/09/04 11:50:21;;;;;;;8.37;6.27;;;;;;;;;;5003383;28;20440;-79
2021/09/04 11:52:46;;;;;;;6.00;4.63;;;;;;;;;;5004516;28;20407;-79
2021/09/04 11:55:12;;;;;;;7.30;5.47;;;;;;;;;;4997839;28;20803;-79
2021/09/04 11:57:38;;;;;;;7.47;6.67;;;;;;;;;;5001365;28;20538;-79
2021/09/04 12:00:11;;;;;;;5.80;5.13;;;;;;;;;;5002107;28;20188;-79
2021/09/04 12:02:40;;;;;;;6.10;4.70;;;;;;;;;;5002538;28;20464;-79
2021/09/04 12:05:06;;;;;;;6.80;3.97;;;;;;;;;;4984660;28;20460;-79
2021/09/04 12:07:33;;;;;;;5.60;3.90;;;;;;;;;;5002004;28;20889;-79
2021/09/04 12:09:58;;;;;;;4.70;4.03;;;;;;;;;;4969250;28;20185;-79
2021/09/04 12:12:28;;;;;;;6.43;3.80;;;;;;;;;;4996707;28;20929;-79
2021/09/04 12:14:53;;;;;;;9.93;6.70;;;;;;;;;;5002357;28;20212;-79
2021/09/04 12:17:18;;;;;;;8.13;5.30;;;;;;;;;;4999462;28;20420;-79
2021/09/04 12:19:44;;;;;;;4.30;3.80;;;;;;;;;;4983695;28;20189;-79
2021/09/04 12:22:09;;;;;;;5.20;4.07;;;;;;;;;;4999417;28;20193;-79
2021/09/04 12:24:34;;;;;;;5.20;4.10;;;;;;;;;;4983043;28;20567;-79
2021/09/04 12:26:59;;;;;;;3.93;3.40;;;;;;;;;;4994588;28;20182;-79
2021/09/04 12:29:28;;;;;;;5.03;3.60;;;;;;;;;;4970303;28;20277;-79
2021/09/04 12:32:05;;;;;;;4.60;4.10;;;;;;;;;;5001254;28;20192;-79
2021/09/04 12:34:30;;;;;;;5.93;3.93;;;;;;;;;;5000289;28;20439;-79
2021/09/04 12:36:55;;;;;;;6.27;4.80;;;;;;;;;;4982635;28;20416;-79
2021/09/04 12:39:21;;;;;;;7.30;5.03;;;;;;;;;;5001105;28;20236;-79
2021/09/04 12:41:47;;;;;;;6.17;4.57;;;;;;;;;;5000163;28;20684;-79
2021/09/04 12:44:14;;;;;;;5.67;4.03;;;;;;;;;;5000882;28;20452;-79
2021/09/04 12:46:41;;;;;;;5.53;3.90;;;;;;;;;;5001855;28;20196;-79
2021/09/04 12:49:35;;;;;;;7.80;4.17;;;;;;;;;;5000570;28;20413;-79
2021/09/04 12:52:04;;;;;;;6.20;3.63;;;;;;;;;;4962435;28;20807;-79
2021/09/04 12:54:30;;;;;;;7.83;3.93;;;;;;;;;;4968584;28;20444;-79
2021/09/04 12:57:04;;;;;;;6.20;4.13;;;;;;;;;;4983731;28;20490;-78
2021/09/04 12:59:40;;;;;;;6.33;4.30;;;;;;;;;;4999634;28;20784;-79
2021/09/04 13:02:07;;;;;;;4.87;3.93;;;;;;;;;;5001552;28;20468;-79
2021/09/04 13:04:32;;;;;;;5.90;4.07;;;;;;;;;;5000556;28;20494;-79
2021/09/04 13:07:00;;;;;;;5.80;4.17;;;;;;;;;;4999744;28;20416;-79
2021/09/04 13:09:26;;;;;;;5.03;3.60;;;;;;;;;;5000862;28;20188;-79
2021/09/04 13:11:51;;;;;;;6.30;3.90;;;;;;;;;;5000266;28;20783;-79
2021/09/04 13:14:16;;;;;;;7.13;4.83;;;;;;;;;;5000282;28;20202;-79
2021/09/04 13:16:41;;;;;;;5.30;3.80;;;;;;;;;;5001023;28;20693;-79
2021/09/04 13:19:06;;;;;;;4.60;3.30;;;;;;;;;;4998801;28;20611;-79
2021/09/04 13:21:32;;;;;;;6.43;4.17;;;;;;;;;;4979356;28;20709;-79
2021/09/04 13:23:57;;;;;;;6.40;4.50;;;;;;;;;;4996196;28;20204;-79
2021/09/04 13:26:22;;;;;;;3.90;3.33;;;;;;;;;;4997301;28;20182;-79
2021/09/04 13:28:47;;;;;;;5.37;3.70;;;;;;;;;;5001398;28;20658;-79
2021/09/04 13:31:13;;;;;;;5.07;4.23;;;;;;;;;;4999883;28;20189;-78
2021/09/04 13:33:38;;;;;;;6.83;4.00;;;;;;;;;;5000683;28;20211;-78
2021/09/04 13:36:04;;;;;;;9.57;4.70;;;;;;;;;;4982649;28;20297;-79
2021/09/04 13:38:29;;;;;;;8.63;4.60;;;;;;;;;;4997005;28;20185;-79
2021/09/04 13:40:55;;;;;;;7.03;4.03;;;;;;;;;;5000007;28;20941;-79
2021/09/04 13:43:20;;;;;;;8.03;3.70;;;;;;;;;;4982510;28;20220;-78
2021/09/04 13:45:45;;;;;;;4.83;3.10;;;;;;;;;;4999895;28;20178;-79
2021/09/04 13:48:10;;;;;;;8.47;4.37;;;;;;;;;;5001791;28;20177;-78
2021/09/04 13:50:39;;;;;;;5.30;3.60;;;;;;;;;;5000984;28;20177;-79
2021/09/04 13:53:04;;;;;;;7.17;4.57;;;;;;;;;;5000382;28;20173;-79
2021/09/04 13:55:29;;;;;;;5.37;4.13;;;;;;;;;;5001655;28;20440;-79
2021/09/04 13:57:54;;;;;;;5.80;3.73;;;;;;;;;;5000536;28;20226;-79
2021/09/04 14:00:20;;;;;;;4.77;3.70;;;;;;;;;;4995217;28;20245;-79
2021/09/04 14:02:45;;;;;;;8.80;4.30;;;;;;;;;;4999161;28;20204;-79
2021/09/04 14:05:10;;;;;;;6.00;4.33;;;;;;;;;;4998938;28;20216;-78
2021/09/04 14:07:35;;;;;;;6.50;4.30;;;;;;;;;;5001481;28;20201;-78
2021/09/04 14:10:01;;;;;;;5.50;3.80;;;;;;;;;;5001335;28;20260;-78
2021/09/04 14:12:26;;;;;;;5.60;4.00;;;;;;;;;;5000723;28;20181;-79
2021/09/04 14:14:51;;;;;;;5.70;4.17;;;;;;;;;;5000932;28;20202;-79
2021/09/04 14:17:17;;;;;;;4.83;4.20;;;;;;;;;;5001414;28;20284;-78
2021/09/04 14:19:42;;;;;;;8.60;4.00;;;;;;;;;;5000202;28;20209;-79
2021/09/04 14:22:07;;;;;;;7.13;4.40;;;;;;;;;;5000927;28;20251;-79
2021/09/04 14:24:32;;;;;;;6.47;3.90;;;;;;;;;;4980840;28;21266;-79
2021/09/04 14:26:58;;;;;;;5.77;4.83;;;;;;;;;;4984036;28;20574;-79
2021/09/04 14:29:23;;;;;;;7.47;4.33;;;;;;;;;;4983939;28;20263;-79
2021/09/04 14:31:48;;;;;;;5.40;4.00;;;;;;;;;;5002821;28;20300;-79
2021/09/04 14:34:14;;;;;;;5.83;3.77;;;;;;;;;;4985246;28;20216;-79
2021/09/04 14:36:39;;;;;;;8.73;4.47;;;;;;;;;;5000620;28;20701;-79
2021/09/04 14:39:04;;;;;;;7.43;4.43;;;;;;;;;;5001938;28;20196;-79